Time;durP1;ratioP1;P1;durP2;ratioP2;P2;SDS_P1;SDS_P2;PMS_P1;PMS_P2;Temp;Humidity;BMP_temperature;BMP_pressure;BME280_temperature;BME280_humidity;BME280_pressure;Samples;Min_cycle;Max_cycle;Signal;HPM_P1;HPM_P2
2023/01/08 00:01:07;;;;;;;1999.90;999.90;;;1.20;99.90;;;;;;5065376;28;20404;-75
2023/01/08 00:03:33;;;;;;;1999.90;999.90;;;1.10;99.90;;;;;;5055450;28;20056;-74
2023/01/08 00:06:01;;;;;;;1999.90;999.90;;;1.00;99.90;;;;;;5059418;28;20286;-75
2023/01/08 00:08:27;;;;;;;1999.90;999.90;;;1.10;99.90;;;;;;5053027;28;20056;-74
2023/01/08 00:10:54;;;;;;;1999.90;999.90;;;1.00;99.90;;;;;;5059997;28;20135;-75
2023/01/08 00:13:20;;;;;;;1999.90;999.90;;;0.90;99.90;;;;;;5053747;28;20507;-74
2023/01/08 00:15:46;;;;;;;1999.90;999.90;;;0.80;99.90;;;;;;5059079;28;20111;-75
2023/01/08 00:18:11;;;;;;;1999.90;999.90;;;0.70;99.90;;;;;;5063513;28;20044;-75
2023/01/08 00:20:41;;;;;;;1999.90;999.90;;;0.80;99.90;;;;;;5036317;28;20667;-74
2023/01/08 00:23:13;;;;;;;1999.90;999.90;;;0.80;99.90;;;;;;5061185;28;20495;-74
2023/01/08 00:25:39;;;;;;;1999.90;999.90;;;0.70;99.90;;;;;;5040605;28;20043;-75
2023/01/08 00:28:05;;;;;;;1999.90;999.90;;;0.70;99.90;;;;;;5053259;28;20029;-75
2023/01/08 00:30:31;;;;;;;1999.90;999.90;;;0.70;99.90;;;;;;5043463;28;20537;-75
2023/01/08 00:32:56;;;;;;;1999.90;999.90;;;0.70;99.90;;;;;;5067169;28;20441;-75
2023/01/08 00:35:22;;;;;;;1999.90;999.90;;;0.70;99.90;;;;;;5055948;28;20029;-75
2023/01/08 00:37:48;;;;;;;1999.90;999.90;;;0.80;99.90;;;;;;5065367;28;20024;-74
2023/01/08 00:40:14;;;;;;;1999.90;999.90;;;0.80;99.90;;;;;;5058571;28;20047;-75
2023/01/08 00:42:40;;;;;;;1999.90;999.90;;;0.90;99.90;;;;;;5057422;28;20120;-75
2023/01/08 00:45:06;;;;;;;1999.90;999.90;;;1.00;99.90;;;;;;5059923;28;20108;-75
2023/01/08 00:47:32;;;;;;;1999.90;999.90;;;1.20;99.90;;;;;;5055806;28;20048;-75
2023/01/08 00:49:58;;;;;;;1999.90;999.90;;;1.10;99.90;;;;;;5053221;28;20024;-75
2023/01/08 00:52:24;;;;;;;1999.90;999.90;;;1.20;99.90;;;;;;5060224;28;20087;-75
2023/01/08 00:54:50;;;;;;;1999.90;999.90;;;1.30;99.90;;;;;;5061112;28;20353;-75
2023/01/08 00:57:15;;;;;;;1999.90;999.90;;;1.40;99.90;;;;;;5058089;28;20021;-75
2023/01/08 00:59:41;;;;;;;1999.90;999.90;;;1.30;99.90;;;;;;5055625;28;20038;-75
2023/01/08 01:02:07;;;;;;;1999.90;999.90;;;1.40;99.90;;;;;;5052165;28;20033;-75
2023/01/08 01:04:33;;;;;;;1999.90;999.90;;;1.60;99.90;;;;;;5060906;28;20048;-75
2023/01/08 01:06:59;;;;;;;1999.90;999.90;;;1.70;99.90;;;;;;5059288;28;20402;-75
2023/01/08 01:09:24;;;;;;;1999.90;999.90;;;1.70;99.90;;;;;;5060903;28;20082;-75
2023/01/08 01:11:50;;;;;;;1999.90;999.90;;;1.80;99.90;;;;;;5056739;28;20082;-75
2023/01/08 01:14:15;;;;;;;1999.90;999.90;;;1.70;99.90;;;;;;5053280;28;20041;-75
2023/01/08 01:16:42;;;;;;;1999.90;999.90;;;1.60;99.90;;;;;;5058272;28;20037;-75
2023/01/08 01:19:08;;;;;;;1999.90;999.90;;;1.70;99.90;;;;;;5065243;28;20024;-75
2023/01/08 01:21:34;;;;;;;1999.90;999.90;;;1.70;99.90;;;;;;5064383;28;20104;-75
2023/01/08 01:24:03;;;;;;;1999.90;999.90;;;1.50;99.90;;;;;;5063604;28;20105;-74
2023/01/08 01:26:29;;;;;;;1999.90;999.90;;;1.50;99.90;;;;;;5058155;28;20024;-75
2023/01/08 01:28:57;;;;;;;1999.90;999.90;;;1.50;99.90;;;;;;5052473;28;20029;-75
2023/01/08 01:31:24;;;;;;;1999.90;999.90;;;1.50;99.90;;;;;;5062337;28;20064;-75
2023/01/08 01:33:50;;;;;;;1999.90;999.90;;;2.00;99.90;;;;;;5063263;28;20029;-75
2023/01/08 01:36:17;;;;;;;1999.90;999.90;;;2.10;99.90;;;;;;5059838;28;20037;-75
2023/01/08 01:38:44;;;;;;;1999.90;999.90;;;2.20;99.90;;;;;;5060378;28;20024;-75
2023/01/08 01:41:32;;;;;;;1999.90;999.90;;;2.10;99.90;;;;;;5060032;28;20067;-75
2023/01/08 01:44:35;;;;;;;1999.90;999.90;;;1.90;99.90;;;;;;5054034;28;20025;-75
2023/01/08 01:47:31;;;;;;;1999.90;999.90;;;1.90;99.90;;;;;;5063371;28;20027;-75
2023/01/08 01:50:02;;;;;;;1999.90;999.90;;;1.90;99.90;;;;;;5061993;28;20120;-75
2023/01/08 01:52:31;;;;;;;1999.90;999.90;;;1.80;99.90;;;;;;5063602;28;20033;-75
2023/01/08 01:55:00;;;;;;;1999.90;999.90;;;1.70;99.90;;;;;;5059329;28;20029;-75
2023/01/08 01:57:27;;;;;;;1999.90;999.90;;;1.60;99.90;;;;;;5061706;28;20494;-75
2023/01/08 01:59:55;;;;;;;1999.90;999.90;;;1.50;99.90;;;;;;5062922;28;20025;-75
2023/01/08 02:02:20;;;;;;;1999.90;999.90;;;1.50;99.90;;;;;;5060939;28;20025;-75
2023/01/08 02:04:46;;;;;;;1999.90;999.90;;;1.50;99.90;;;;;;5050255;28;20031;-75
2023/01/08 02:07:35;;;;;;;1999.90;999.90;;;1.40;99.90;;;;;;5063217;28;20060;-75
2023/01/08 02:10:08;;;;;;;1999.90;999.90;;;1.40;99.90;;;;;;5062444;28;20028;-75
2023/01/08 02:12:45;;;;;;;1999.90;999.90;;;1.40;99.90;;;;;;5060460;28;20099;-75
2023/01/08 02:15:26;;;;;;;1999.90;999.90;;;1.30;99.90;;;;;;5057395;28;20025;-75
2023/01/08 02:18:06;;;;;;;1999.90;999.90;;;1.30;99.90;;;;;;5067589;28;20024;-75
2023/01/08 02:20:41;;;;;;;1999.90;999.90;;;1.20;99.90;;;;;;5062786;28;20029;-75
2023/01/08 02:23:22;;;;;;;1999.90;999.90;;;1.20;99.90;;;;;;5056100;28;20040;-75
2023/01/08 02:26:14;;;;;;;1999.90;999.90;;;1.40;99.90;;;;;;5058331;28;20021;-74
2023/01/08 02:28:55;;;;;;;1999.90;999.90;;;1.50;99.90;;;;;;5059372;28;20063;-75
2023/01/08 02:31:22;;;;;;;1999.90;999.90;;;1.50;99.90;;;;;;5057702;28;20517;-74
2023/01/08 02:33:48;;;;;;;1999.90;999.90;;;1.60;99.90;;;;;;5059176;28;20056;-75
2023/01/08 02:36:17;;;;;;;1999.90;999.90;;;1.60;99.90;;;;;;5061126;28;20083;-75
2023/01/08 02:39:12;;;;;;;1999.90;999.90;;;1.50;99.90;;;;;;5064113;28;20799;-75
2023/01/08 02:41:57;;;;;;;1999.90;999.90;;;1.50;99.90;;;;;;5064717;28;20607;-75
2023/01/08 02:44:34;;;;;;;1999.90;999.90;;;1.50;99.90;;;;;;5063124;28;20055;-75
2023/01/08 02:47:04;;;;;;;1999.90;999.90;;;1.50;99.90;;;;;;5058918;28;20025;-75
2023/01/08 02:49:34;;;;;;;1999.90;999.90;;;1.40;99.90;;;;;;5061140;28;20029;-75
2023/01/08 02:52:03;;;;;;;1999.90;999.90;;;1.50;99.90;;;;;;5061466;28;20064;-75
2023/01/08 02:54:32;;;;;;;1999.90;999.90;;;1.40;99.90;;;;;;5055353;28;20425;-75
2023/01/08 02:57:18;;;;;;;1999.90;999.90;;;1.40;99.90;;;;;;5055361;28;20067;-75
2023/01/08 02:59:46;;;;;;;1999.90;999.90;;;1.50;99.90;;;;;;5059513;28;20020;-75
2023/01/08 03:02:12;;;;;;;1999.90;999.90;;;1.40;99.90;;;;;;5060292;28;20120;-75
2023/01/08 03:04:51;;;;;;;1999.90;999.90;;;1.40;99.90;;;;;;5058328;28;20032;-75
2023/01/08 03:07:17;;;;;;;1999.90;999.90;;;1.40;99.90;;;;;;5055973;28;20040;-75
2023/01/08 03:09:43;;;;;;;1999.90;999.90;;;1.30;99.90;;;;;;5056738;28;20087;-75
2023/01/08 03:12:13;;;;;;;1999.90;999.90;;;1.30;99.90;;;;;;5062955;28;20399;-75
2023/01/08 03:15:01;;;;;;;1999.90;999.90;;;1.30;99.90;;;;;;5059302;28;20029;-75
2023/01/08 03:17:43;;;;;;;1999.90;999.90;;;1.30;99.90;;;;;;5059749;28;20028;-75
2023/01/08 03:20:19;;;;;;;1999.90;999.90;;;1.30;99.90;;;;;;5062878;28;20125;-75
2023/01/08 03:22:49;;;;;;;1999.90;999.90;;;1.20;99.90;;;;;;5060938;28;20032;-75
2023/01/08 03:25:18;;;;;;;1999.90;999.90;;;1.20;99.90;;;;;;5061491;28;20114;-75
2023/01/08 03:27:48;;;;;;;1999.90;999.90;;;1.20;99.90;;;;;;5064068;28;20486;-75
2023/01/08 03:30:16;;;;;;;1999.90;999.90;;;1.20;99.90;;;;;;5058207;28;20055;-75
2023/01/08 03:32:43;;;;;;;1999.90;999.90;;;1.20;99.90;;;;;;5060481;28;20119;-75
2023/01/08 03:35:10;;;;;;;1999.90;999.90;;;1.20;99.90;;;;;;5058195;28;20124;-75
2023/01/08 03:37:40;;;;;;;1999.90;999.90;;;1.30;99.90;;;;;;5054401;28;20051;-75
2023/01/08 03:40:06;;;;;;;1999.90;999.90;;;1.30;99.90;;;;;;5055897;28;20162;-75
2023/01/08 03:42:32;;;;;;;1999.90;999.90;;;1.30;99.90;;;;;;5064201;28;20031;-75
2023/01/08 03:45:01;;;;;;;1999.90;999.90;;;1.40;99.90;;;;;;5065399;28;20033;-75
2023/01/08 03:47:29;;;;;;;1999.90;999.90;;;1.40;99.90;;;;;;5062580;28;20059;-75
2023/01/08 03:49:59;;;;;;;1999.90;999.90;;;1.50;99.90;;;;;;5072405;28;20450;-75
2023/01/08 03:52:29;;;;;;;1999.90;999.90;;;1.60;99.90;;;;;;5060741;28;20028;-75
2023/01/08 03:54:55;;;;;;;;;;;1.70;99.90;;;;;;5056829;28;20048;-75
2023/01/08 03:57:23;;;;;;;1999.90;999.90;;;1.70;99.90;;;;;;5057221;28;19909;-75
2023/01/08 03:59:48;;;;;;;1999.90;999.90;;;1.80;99.90;;;;;;5063099;28;20475;-75
2023/01/08 04:02:14;;;;;;;1999.90;999.90;;;1.80;99.90;;;;;;5062359;28;20172;-75
2023/01/08 04:04:40;;;;;;;1999.90;999.90;;;1.80;99.90;;;;;;5055872;28;20110;-75
2023/01/08 04:07:08;;;;;;;1999.90;999.90;;;1.70;99.90;;;;;;5060174;28;20059;-75
2023/01/08 04:09:34;;;;;;;1999.90;999.90;;;1.80;99.90;;;;;;5059985;28;20040;-75
2023/01/08 04:11:59;;;;;;;1999.90;999.90;;;1.70;99.90;;;;;;5061019;28;20037;-75
2023/01/08 04:14:25;;;;;;;1999.90;999.90;;;1.60;99.90;;;;;;5060692;28;20517;-75
2023/01/08 04:16:50;;;;;;;1999.90;999.90;;;1.70;99.90;;;;;;5059149;28;20056;-75
2023/01/08 04:19:16;;;;;;;1999.90;999.90;;;1.80;99.90;;;;;;5064901;28;20036;-75
2023/01/08 04:21:42;;;;;;;1999.90;999.90;;;1.70;99.90;;;;;;5054615;28;20048;-75
2023/01/08 04:24:07;;;;;;;1999.90;999.90;;;1.80;99.90;;;;;;5055595;28;20028;-74
2023/01/08 04:26:33;;;;;;;1999.90;999.90;;;1.90;99.90;;;;;;5064971;28;20371;-75
2023/01/08 04:29:02;;;;;;;1999.90;999.90;;;2.00;99.90;;;;;;5064742;28;20067;-75
2023/01/08 04:31:27;;;;;;;1999.90;999.90;;;2.10;99.90;;;;;;5054202;28;20051;-75
2023/01/08 04:33:53;;;;;;;1999.90;999.90;;;2.20;99.90;;;;;;5055795;28;20025;-75
2023/01/08 04:36:18;;;;;;;1999.90;999.90;;;2.10;99.90;;;;;;5054385;28;20044;-75
2023/01/08 04:38:44;;;;;;;1999.90;999.90;;;2.00;99.90;;;;;;5061651;28;20033;-75
2023/01/08 04:41:10;;;;;;;1999.90;999.90;;;1.90;99.90;;;;;;5056156;28;20151;-75
2023/01/08 04:43:35;;;;;;;1999.90;999.90;;;1.80;99.90;;;;;;5061038;28;20046;-73
2023/01/08 04:46:02;;;;;;;1999.90;999.90;;;1.90;99.90;;;;;;5066334;28;20025;-73
2023/01/08 04:48:29;;;;;;;1999.90;999.90;;;1.80;99.90;;;;;;5061476;28;20047;-72
2023/01/08 04:50:57;;;;;;;1999.90;999.90;;;1.80;99.90;;;;;;5058327;28;20035;-73
2023/01/08 04:53:23;;;;;;;1999.90;999.90;;;1.70;99.90;;;;;;5051375;28;20055;-73
2023/01/08 04:55:49;;;;;;;1999.90;999.90;;;1.70;99.90;;;;;;5062619;28;20482;-73
2023/01/08 04:58:14;;;;;;;1999.90;999.90;;;1.80;99.90;;;;;;5059235;28;20108;-73
2023/01/08 05:00:40;;;;;;;1999.90;999.90;;;1.90;99.90;;;;;;5041623;28;20031;-75
2023/01/08 05:03:06;;;;;;;1999.90;999.90;;;2.00;99.90;;;;;;5061628;28;20444;-75
2023/01/08 05:05:33;;;;;;;1999.90;999.90;;;2.00;99.90;;;;;;5048773;28;20040;-75
2023/01/08 05:07:59;;;;;;;1999.90;999.90;;;2.00;99.90;;;;;;5059661;28;20050;-75
2023/01/08 05:10:24;;;;;;;1999.90;999.90;;;2.00;99.90;;;;;;5058664;28;20037;-75
2023/01/08 05:12:50;;;;;;;1999.90;999.90;;;1.90;99.90;;;;;;5056578;28;20037;-76
2023/01/08 05:15:16;;;;;;;1999.90;999.90;;;1.80;99.90;;;;;;5061102;28;20071;-75
2023/01/08 05:17:41;;;;;;;1999.90;999.90;;;1.70;99.90;;;;;;5063091;28;20415;-76
2023/01/08 05:20:08;;;;;;;1999.90;999.90;;;1.80;99.90;;;;;;5039469;28;20074;-73
2023/01/08 05:22:34;;;;;;;1999.90;999.90;;;1.80;99.90;;;;;;5052283;28;20697;-73
2023/01/08 05:24:59;;;;;;;1999.90;999.90;;;2.00;99.90;;;;;;5063816;28;20111;-73
2023/01/08 05:27:26;;;;;;;1999.90;999.90;;;2.00;99.90;;;;;;5062073;28;20487;-73
2023/01/08 05:29:52;;;;;;;1999.90;999.90;;;2.00;99.90;;;;;;5057405;28;20052;-73
2023/01/08 05:32:18;;;;;;;1999.90;999.90;;;2.10;99.90;;;;;;5059211;28;20037;-73
2023/01/08 05:34:44;;;;;;;1999.90;999.90;;;2.10;99.90;;;;;;5064918;28;20059;-73
2023/01/08 05:37:10;;;;;;;1999.90;999.90;;;2.30;99.90;;;;;;5058881;28;20033;-73
2023/01/08 05:39:36;;;;;;;1999.90;999.90;;;2.40;99.90;;;;;;5064419;28;20020;-73
2023/01/08 05:42:03;;;;;;;1999.90;999.90;;;2.50;99.90;;;;;;5061768;28;20099;-73
2023/01/08 05:44:28;;;;;;;1999.90;999.90;;;2.40;99.90;;;;;;5061746;28;20028;-73
2023/01/08 05:46:54;;;;;;;1999.90;999.90;;;2.20;99.90;;;;;;5066197;28;20517;-73
2023/01/08 05:49:20;;;;;;;1999.90;999.90;;;2.00;99.90;;;;;;5058814;28;20036;-73
2023/01/08 05:51:47;;;;;;;1999.90;999.90;;;2.00;99.90;;;;;;5064077;28;20021;-72
2023/01/08 05:54:13;;;;;;;1999.90;999.90;;;2.10;99.90;;;;;;5061701;28;20078;-73
2023/01/08 05:56:39;;;;;;;1999.90;999.90;;;1.90;99.90;;;;;;5065376;28;20445;-73
2023/01/08 05:59:05;;;;;;;1999.90;999.90;;;2.00;99.90;;;;;;5059681;28;20036;-73
2023/01/08 06:01:34;;;;;;;1999.90;999.90;;;1.90;99.90;;;;;;5061059;28;20033;-72
2023/01/08 06:04:00;;;;;;;1999.90;999.90;;;2.00;99.90;;;;;;5057692;28;20029;-73
2023/01/08 06:06:25;;;;;;;1999.90;999.90;;;2.10;99.90;;;;;;5060267;28;20052;-73
2023/01/08 06:08:51;;;;;;;1999.90;999.90;;;2.20;99.90;;;;;;5036239;28;20043;-73
2023/01/08 06:11:17;;;;;;;1999.90;999.90;;;2.20;99.90;;;;;;5060705;28;20040;-73
2023/01/08 06:13:43;;;;;;;1999.90;999.90;;;2.30;99.90;;;;;;5047726;28;20040;-73
2023/01/08 06:16:09;;;;;;;1999.90;999.90;;;2.30;99.90;;;;;;5065029;28;20826;-73
2023/01/08 06:18:35;;;;;;;1999.90;999.90;;;2.30;99.90;;;;;;5062316;28;20386;-75
2023/01/08 06:21:03;;;;;;;1999.90;999.90;;;2.30;99.90;;;;;;5064850;28;20643;-73
2023/01/08 06:23:28;;;;;;;1999.90;999.90;;;2.30;99.90;;;;;;5056944;28;20398;-73
2023/01/08 06:25:56;;;;;;;1999.90;999.90;;;2.30;99.90;;;;;;5061463;28;20028;-73
2023/01/08 06:28:22;;;;;;;1999.90;999.90;;;2.30;99.90;;;;;;5061179;28;20056;-74
2023/01/08 06:30:48;;;;;;;1999.90;999.90;;;2.30;99.90;;;;;;5061689;28;20036;-73
2023/01/08 06:33:14;;;;;;;1999.90;999.90;;;2.30;99.90;;;;;;5056670;28;20041;-73
2023/01/08 06:35:39;;;;;;;1999.90;999.90;;;2.20;99.90;;;;;;5059691;28;20087;-73
2023/01/08 06:38:05;;;;;;;1999.90;999.90;;;2.30;99.90;;;;;;5054083;28;20090;-73
2023/01/08 06:40:31;;;;;;;1999.90;999.90;;;2.40;99.90;;;;;;5054061;28;20036;-73
2023/01/08 06:43:04;;;;;;;1999.90;999.90;;;2.40;99.90;;;;;;5063042;28;20593;-74
2023/01/08 06:45:30;;;;;;;1999.90;999.90;;;2.40;99.90;;;;;;5060307;28;20057;-73
2023/01/08 06:48:03;;;;;;;1999.90;999.90;;;2.40;99.90;;;;;;5063951;28;20028;-73
2023/01/08 06:50:29;;;;;;;1999.90;999.90;;;2.40;99.90;;;;;;5057572;28;20078;-73
2023/01/08 06:52:55;;;;;;;1999.90;999.90;;;2.50;99.90;;;;;;5058961;28;20104;-73
2023/01/08 06:55:22;;;;;;;1999.90;999.90;;;2.40;99.90;;;;;;5063608;28;20041;-73
2023/01/08 06:57:52;;;;;;;1999.90;999.90;;;2.50;99.90;;;;;;5059791;28;20037;-73
2023/01/08 07:00:18;;;;;;;1999.90;999.90;;;2.50;99.90;;;;;;5060102;28;20555;-73
2023/01/08 07:02:43;;;;;;;1999.90;999.90;;;2.50;99.90;;;;;;5057225;28;20040;-73
2023/01/08 07:05:09;;;;;;;1999.90;999.90;;;2.60;99.90;;;;;;5042828;28;20475;-73
2023/01/08 07:07:35;;;;;;;1999.90;999.90;;;2.60;99.90;;;;;;5065831;28;20055;-73
2023/01/08 07:10:01;;;;;;;1999.90;999.90;;;2.50;99.90;;;;;;5059018;28;20060;-73
2023/01/08 07:12:26;;;;;;;1999.90;999.90;;;2.50;99.90;;;;;;5057348;28;20033;-73
2023/01/08 07:14:52;;;;;;;1999.90;999.90;;;2.60;99.90;;;;;;5055218;28;20048;-73
2023/01/08 07:17:17;;;;;;;1999.90;999.90;;;2.60;99.90;;;;;;5063253;28;20783;-73
2023/01/08 07:19:43;;;;;;;1999.90;999.90;;;2.60;99.90;;;;;;5064708;28;20052;-74
2023/01/08 07:22:09;;;;;;;1999.90;999.90;;;2.70;99.90;;;;;;5058629;28;20024;-74
2023/01/08 07:24:34;;;;;;;1999.90;999.90;;;2.70;99.90;;;;;;5060337;28;20021;-74
2023/01/08 07:27:00;;;;;;;1999.90;999.90;;;2.70;99.90;;;;;;5061984;28;20036;-73
2023/01/08 07:29:26;;;;;;;1999.90;999.90;;;2.70;99.90;;;;;;5058585;28;20021;-73
2023/01/08 07:31:52;;;;;;;1999.90;999.90;;;2.70;99.90;;;;;;5058193;28;20060;-73
2023/01/08 07:34:17;;;;;;;1999.90;999.90;;;2.80;99.90;;;;;;5057849;28;20593;-74
2023/01/08 07:36:43;;;;;;;1999.90;999.90;;;2.90;99.90;;;;;;5058422;28;20104;-73
2023/01/08 07:39:09;;;;;;;1999.90;999.90;;;2.90;99.90;;;;;;5054715;28;20502;-73
2023/01/08 07:41:34;;;;;;;1999.90;999.90;;;2.90;99.90;;;;;;5063187;28;20429;-73
2023/01/08 07:44:00;;;;;;;1999.90;999.90;;;3.00;99.90;;;;;;5058830;28;20730;-73
2023/01/08 07:46:26;;;;;;;1999.90;999.90;;;3.10;99.90;;;;;;5066413;28;20467;-72
2023/01/08 07:48:51;;;;;;;1999.90;999.90;;;3.10;99.90;;;;;;5058318;28;20040;-72
2023/01/08 07:51:17;;;;;;;1999.90;999.90;;;3.20;99.90;;;;;;5061792;28;20036;-73
2023/01/08 07:53:43;;;;;;;1999.90;999.90;;;3.30;99.90;;;;;;5053297;28;20479;-74
2023/01/08 07:56:09;;;;;;;1999.90;999.90;;;3.30;99.90;;;;;;5057943;28;20036;-73
2023/01/08 07:58:35;;;;;;;1999.90;999.90;;;3.40;99.90;;;;;;5057330;28;20407;-73
2023/01/08 08:01:02;;;;;;;1999.90;999.90;;;3.40;99.90;;;;;;5059185;28;20039;-72
2023/01/08 08:03:28;;;;;;;1999.90;999.90;;;3.40;99.90;;;;;;5063334;28;20063;-73
2023/01/08 08:05:53;;;;;;;1999.90;999.90;;;3.50;99.90;;;;;;5041848;28;20048;-73
2023/01/08 08:08:19;;;;;;;1999.90;999.90;;;3.40;99.90;;;;;;5063210;28;20116;-72
2023/01/08 08:10:45;;;;;;;1999.90;999.90;;;3.50;99.90;;;;;;5057757;28;20066;-73
2023/01/08 08:13:12;;;;;;;1999.90;999.90;;;3.60;99.90;;;;;;5058703;28;20494;-72
2023/01/08 08:15:39;;;;;;;1999.90;999.90;;;3.70;99.90;;;;;;5061097;28;20036;-73
2023/01/08 08:18:06;;;;;;;1999.90;999.90;;;3.80;99.90;;;;;;5056924;28;20040;-72
2023/01/08 08:20:32;;;;;;;1999.90;999.90;;;3.80;99.90;;;;;;5065305;28;20094;-72
2023/01/08 08:23:08;;;;;;;1999.90;999.90;;;3.90;99.90;;;;;;5062379;28;20055;-72
2023/01/08 08:25:35;;;;;;;1999.90;999.90;;;4.10;99.90;;;;;;5060453;28;20625;-72
2023/01/08 08:28:01;;;;;;;1999.90;999.90;;;4.00;99.90;;;;;;5060012;28;20115;-73
2023/01/08 08:30:28;;;;;;;1999.90;999.90;;;4.00;99.90;;;;;;5053255;28;20055;-73
2023/01/08 08:32:57;;;;;;;1999.90;999.90;;;4.00;99.90;;;;;;5058706;28;20032;-73
2023/01/08 08:35:22;;;;;;;1999.90;999.90;;;4.00;99.90;;;;;;5056473;28;20068;-72
2023/01/08 08:37:48;;;;;;;1999.90;999.90;;;4.10;99.90;;;;;;5054992;28;20502;-74
2023/01/08 08:40:14;;;;;;;1999.90;999.90;;;4.10;99.90;;;;;;5060118;28;20033;-74
2023/01/08 08:42:39;;;;;;;1999.90;999.90;;;4.20;99.90;;;;;;5061408;28;20071;-73
2023/01/08 08:45:06;;;;;;;1999.90;999.90;;;4.20;99.90;;;;;;5057788;28;20035;-75
2023/01/08 08:47:31;;;;;;;1999.90;999.90;;;4.20;99.90;;;;;;5047152;28;20435;-73
2023/01/08 08:49:57;;;;;;;1999.90;999.90;;;4.20;99.90;;;;;;5049963;28;20031;-74
2023/01/08 08:52:22;;;;;;;1999.90;999.90;;;4.30;99.90;;;;;;5059657;28;20449;-74
2023/01/08 08:54:48;;;;;;;1999.90;999.90;;;4.30;99.90;;;;;;5063583;28;20491;-72
2023/01/08 08:57:14;;;;;;;1999.90;999.90;;;4.30;99.90;;;;;;5057556;28;20032;-71
2023/01/08 08:59:39;;;;;;;1999.90;999.90;;;4.40;99.90;;;;;;5062591;28;20398;-72
2023/01/08 09:02:06;;;;;;;1999.90;999.90;;;4.40;99.90;;;;;;5051019;28;20037;-70
2023/01/08 09:04:32;;;;;;;1999.90;999.90;;;4.40;99.90;;;;;;5058502;28;20040;-72
2023/01/08 09:06:58;;;;;;;1999.90;999.90;;;4.30;99.90;;;;;;5055170;28;20025;-72
2023/01/08 09:09:24;;;;;;;1999.90;999.90;;;4.30;99.90;;;;;;5050053;28;20532;-72
2023/01/08 09:11:51;;;;;;;1999.90;999.90;;;4.30;99.90;;;;;;5059949;28;20024;-72
2023/01/08 09:14:16;;;;;;;1999.90;999.90;;;4.30;99.90;;;;;;5044200;28;20441;-72
2023/01/08 09:16:42;;;;;;;1999.90;999.90;;;4.30;99.90;;;;;;5055702;28;20078;-71
2023/01/08 09:19:08;;;;;;;1999.90;999.90;;;5.10;99.90;;;;;;5055465;28;20032;-71
2023/01/08 09:21:35;;;;;;;1999.90;999.90;;;5.30;99.90;;;;;;5060037;28;20506;-71
2023/01/08 09:24:01;;;;;;;1999.90;999.90;;;5.30;99.90;;;;;;5052500;28;20106;-71
2023/01/08 09:26:27;;;;;;;1999.90;999.90;;;5.40;99.90;;;;;;5058956;28;20025;-71
2023/01/08 09:28:53;;;;;;;1999.90;999.90;;;5.50;99.90;;;;;;5054219;28;20485;-70
2023/01/08 09:31:19;;;;;;;1999.90;999.90;;;5.50;99.90;;;;;;5051978;28;20119;-71
2023/01/08 09:33:47;;;;;;;1999.90;999.90;;;5.60;99.90;;;;;;5056223;28;20059;-71
2023/01/08 09:36:13;;;;;;;1999.90;999.90;;;5.80;99.90;;;;;;5055049;28;20032;-71
2023/01/08 09:38:38;;;;;;;1999.90;999.90;;;5.90;99.90;;;;;;5058198;28;20032;-71
2023/01/08 09:41:19;;;;;;;1999.90;999.90;;;6.00;99.90;;;;;;5056347;28;20037;-71
2023/01/08 09:43:46;;;;;;;;;;;6.20;99.90;;;;;;5059049;28;20079;-71
2023/01/08 09:46:12;;;;;;;1999.90;999.90;;;6.30;99.90;;;;;;5065129;28;19909;-71
2023/01/08 09:48:39;;;;;;;1999.90;999.90;;;6.40;99.90;;;;;;5055254;28;20169;-71
2023/01/08 09:51:30;;;;;;;1999.90;999.90;;;6.60;99.90;;;;;;5058940;28;20032;-72
2023/01/08 09:53:57;;;;;;;1999.90;999.90;;;6.60;99.90;;;;;;5059052;28;20533;-71
2023/01/08 09:56:22;;;;;;;1999.90;999.90;;;6.60;99.90;;;;;;5061044;28;20041;-72
2023/01/08 09:58:53;;;;;;;1999.90;999.90;;;6.60;99.90;;;;;;5061147;28;20028;-72
2023/01/08 10:01:25;;;;;;;1999.90;999.90;;;6.50;99.90;;;;;;5055753;28;20055;-72
2023/01/08 10:04:03;;;;;;;1999.90;999.90;;;6.40;99.90;;;;;;5050628;28;20498;-69
2023/01/08 10:06:30;;;;;;;1999.90;999.90;;;6.40;99.90;;;;;;5051517;28;20379;-70
2023/01/08 10:08:56;;;;;;;1999.90;999.90;;;6.50;99.90;;;;;;5054518;28;20040;-69
2023/01/08 10:11:25;;;;;;;1999.90;999.90;;;6.50;99.90;;;;;;5055509;28;20072;-70
2023/01/08 10:13:56;;;;;;;1999.90;999.90;;;6.40;99.90;;;;;;5055846;28;20666;-71
2023/01/08 10:16:32;;;;;;;1999.90;999.90;;;6.50;99.90;;;;;;5065799;28;20051;-72
2023/01/08 10:18:59;;;;;;;1999.90;999.90;;;6.60;99.90;;;;;;5059125;28;20021;-72
2023/01/08 10:21:45;;;;;;;1999.90;999.90;;;6.50;99.90;;;;;;5061668;28;20105;-74
2023/01/08 10:24:10;;;;;;;1999.90;999.90;;;6.70;99.90;;;;;;5064616;28;20043;-74
2023/01/08 10:26:38;;;;;;;1999.90;999.90;;;6.90;99.90;;;;;;5059792;28;20028;-74
2023/01/08 10:29:08;;;;;;;1999.90;999.90;;;6.70;99.90;;;;;;5061933;28;20032;-77
2023/01/08 10:31:42;;;;;;;;;;;6.60;99.90;;;;;;5066413;28;20044;-75
2023/01/08 10:34:09;;;;;;;1999.90;999.90;;;6.50;99.90;;;;;;5063240;28;20002;-75
2023/01/08 10:36:41;;;;;;;1999.90;999.90;;;6.60;99.90;;;;;;5077810;28;20502;-76
2023/01/08 10:39:16;;;;;;;1999.90;999.90;;;6.60;99.90;;;;;;5042084;28;20037;-75
2023/01/08 10:41:42;;;;;;;1999.90;999.90;;;6.70;99.90;;;;;;5063083;28;20029;-74
2023/01/08 10:44:16;;;;;;;1999.90;999.90;;;6.70;99.90;;;;;;5067854;28;20031;-73
2023/01/08 10:46:47;;;;;;;1999.90;999.90;;;6.70;99.90;;;;;;5068112;28;20028;-75
2023/01/08 10:49:38;;;;;;;1999.90;999.90;;;6.60;99.90;;;;;;5061270;28;20062;-75
2023/01/08 10:52:04;;;;;;;1999.90;999.90;;;6.60;99.90;;;;;;5054921;28;20492;-77
2023/01/08 10:54:37;;;;;;;1999.90;999.90;;;6.60;99.90;;;;;;5058862;28;20041;-76
2023/01/08 10:57:28;;;;;;;1999.90;999.90;;;6.70;99.90;;;;;;5063672;28;20032;-77
2023/01/08 10:59:55;;;;;;;1999.90;999.90;;;6.70;99.90;;;;;;5061606;28;20053;-78
2023/01/08 11:02:33;;;;;;;1999.90;999.90;;;6.90;99.90;;;;;;5054009;28;20029;-78
2023/01/08 11:04:59;;;;;;;1999.90;999.90;;;6.90;99.90;;;;;;5053989;28;20029;-77
2023/01/08 11:07:26;;;;;;;1999.90;999.90;;;7.00;99.90;;;;;;5057408;28;20609;-76
2023/01/08 11:09:52;;;;;;;1999.90;999.90;;;6.90;99.90;;;;;;5062545;28;20037;-75
2023/01/08 11:12:38;;;;;;;1999.90;999.90;;;6.80;99.90;;;;;;5061615;28;20039;-78
2023/01/08 11:15:28;;;;;;;1999.90;999.90;;;6.90;99.90;;;;;;5058875;28;20029;-78
2023/01/08 11:18:03;;;;;;;1999.90;999.90;;;6.90;99.90;;;;;;5063351;28;20033;-78
2023/01/08 11:20:30;;;;;;;1999.90;999.90;;;7.00;99.90;;;;;;5061332;28;20045;-78
2023/01/08 11:23:12;;;;;;;1999.90;999.90;;;7.10;99.90;;;;;;5063286;28;20063;-78
2023/01/08 11:25:39;;;;;;;1999.90;999.90;;;7.10;99.90;;;;;;5065716;28;20425;-77
2023/01/08 11:28:10;;;;;;;1999.90;999.90;;;7.20;99.90;;;;;;5070874;28;20025;-77
2023/01/08 11:30:37;;;;;;;;;;;7.20;99.90;;;;;;5058550;28;20079;-77
2023/01/08 11:33:12;;;;;;;1999.90;999.90;;;7.30;99.90;;;;;;5052810;28;19940;-77
2023/01/08 11:35:40;;;;;;;1030.20;518.25;;;7.30;99.90;;;;;;5061993;28;20033;-76
2023/01/08 11:38:09;;;;;;;1999.90;999.90;;;7.20;99.90;;;;;;5051826;28;20040;-76
2023/01/08 11:40:51;;;;;;;1999.90;999.90;;;7.30;99.90;;;;;;5056442;28;20136;-76
2023/01/08 11:43:43;;;;;;;1999.90;999.90;;;7.20;99.90;;;;;;5063894;28;20025;-76
2023/01/08 11:46:25;;;;;;;1999.90;999.90;;;7.20;99.90;;;;;;5059185;28;20057;-76
2023/01/08 11:48:57;;;;;;;;;;;7.20;99.90;;;;;;5066008;28;20032;-76
2023/01/08 11:51:38;;;;;;;1999.90;999.90;;;7.20;99.90;;;;;;5057868;28;20322;-76
2023/01/08 11:54:30;;;;;;;1999.90;999.90;;;7.30;99.90;;;;;;5062827;28;20072;-76
2023/01/08 11:56:56;;;;;;;;;;;7.40;99.90;;;;;;5062942;28;20393;-75
2023/01/08 11:59:30;;;;;;;1999.90;999.90;;;7.50;99.90;;;;;;5061211;28;19983;-76
2023/01/08 12:02:17;;;;;;;1999.90;999.90;;;7.70;99.90;;;;;;5063046;28;20502;-75
2023/01/08 12:04:55;;;;;;;1999.90;999.90;;;7.60;99.90;;;;;;5065589;28;20059;-75
2023/01/08 12:07:48;;;;;;;1999.90;999.90;;;7.50;99.90;;;;;;5058223;28;20025;-74
2023/01/08 12:10:27;;;;;;;1999.90;999.90;;;7.50;99.90;;;;;;5063675;28;20067;-76
2023/01/08 12:13:11;;;;;;;1999.90;999.90;;;7.50;99.90;;;;;;5063396;28;20494;-76
2023/01/08 12:15:53;;;;;;;1999.90;999.90;;;7.60;99.90;;;;;;5064378;28;20653;-76
2023/01/08 12:18:25;;;;;;;1999.90;999.90;;;7.50;99.90;;;;;;5057515;28;20028;-76
2023/01/08 12:21:30;;;;;;;1999.90;999.90;;;7.50;99.90;;;;;;5064155;28;20043;-76